sensor_id;sensor_type;location;lat;lon;timestamp;P1;durP1;ratioP1;P2;durP2;ratioP2
18140;SDS011;9196;49.194;12.526;2023-07-20T00:01:34;9.20;;;3.37;;
18140;SDS011;9196;49.194;12.526;2023-07-20T00:04:01;5.20;;;3.73;;
18140;SDS011;9196;49.194;12.526;2023-07-20T00:06:28;6.40;;;3.60;;
18140;SDS011;9196;49.194;12.526;2023-07-20T00:08:54;6.53;;;4.07;;
18140;SDS011;9196;49.194;12.526;2023-07-20T00:11:24;7.93;;;3.70;;
18140;SDS011;9196;49.194;12.526;2023-07-20T00:13:52;5.20;;;3.70;;
18140;SDS011;9196;49.194;12.526;2023-07-20T00:16:19;4.00;;;3.60;;
18140;SDS011;9196;49.194;12.526;2023-07-20T00:18:47;5.07;;;4.03;;
18140;SDS011;9196;49.194;12.526;2023-07-20T00:21:14;4.80;;;3.40;;
18140;SDS011;9196;49.194;12.526;2023-07-20T00:23:41;4.20;;;3.37;;
18140;SDS011;9196;49.194;12.526;2023-07-20T00:26:08;3.77;;;3.47;;
18140;SDS011;9196;49.194;12.526;2023-07-20T00:28:35;4.47;;;3.07;;
18140;SDS011;9196;49.194;12.526;2023-07-20T00:31:02;5.57;;;3.57;;
18140;SDS011;9196;49.194;12.526;2023-07-20T00:33:29;3.67;;;3.37;;
18140;SDS011;9196;49.194;12.526;2023-07-20T00:35:57;3.83;;;3.40;;
18140;SDS011;9196;49.194;12.526;2023-07-20T00:38:24;5.67;;;3.53;;
18140;SDS011;9196;49.194;12.526;2023-07-20T00:40:51;6.93;;;3.70;;
18140;SDS011;9196;49.194;12.526;2023-07-20T00:43:17;3.43;;;3.03;;
18140;SDS011;9196;49.194;12.526;2023-07-20T00:45:44;5.17;;;3.57;;
18140;SDS011;9196;49.194;12.526;2023-07-20T00:48:11;3.97;;;3.57;;
18140;SDS011;9196;49.194;12.526;2023-07-20T00:50:40;3.90;;;3.57;;
18140;SDS011;9196;49.194;12.526;2023-07-20T00:53:09;3.60;;;3.30;;
18140;SDS011;9196;49.194;12.526;2023-07-20T00:55:36;3.80;;;3.07;;
18140;SDS011;9196;49.194;12.526;2023-07-20T00:58:03;3.60;;;3.23;;
18140;SDS011;9196;49.194;12.526;2023-07-20T01:00:30;3.93;;;3.53;;
18140;SDS011;9196;49.194;12.526;2023-07-20T01:02:57;6.80;;;3.47;;
18140;SDS011;9196;49.194;12.526;2023-07-20T01:05:25;5.47;;;3.20;;
18140;SDS011;9196;49.194;12.526;2023-07-20T01:08:00;3.13;;;2.90;;
18140;SDS011;9196;49.194;12.526;2023-07-20T01:10:36;4.07;;;3.77;;
18140;SDS011;9196;49.194;12.526;2023-07-20T01:13:07;6.10;;;3.50;;
18140;SDS011;9196;49.194;12.526;2023-07-20T01:15:36;4.87;;;4.37;;
18140;SDS011;9196;49.194;12.526;2023-07-20T01:18:03;7.27;;;3.83;;
18140;SDS011;9196;49.194;12.526;2023-07-20T01:20:30;5.17;;;3.47;;
18140;SDS011;9196;49.194;12.526;2023-07-20T01:26:12;15.33;;;4.00;;
18140;SDS011;9196;49.194;12.526;2023-07-20T01:31:45;3.73;;;3.50;;
18140;SDS011;9196;49.194;12.526;2023-07-20T01:34:17;4.03;;;3.67;;
18140;SDS011;9196;49.194;12.526;2023-07-20T01:36:44;5.47;;;3.67;;
18140;SDS011;9196;49.194;12.526;2023-07-20T01:39:12;4.33;;;3.10;;
18140;SDS011;9196;49.194;12.526;2023-07-20T01:41:39;7.77;;;4.80;;
18140;SDS011;9196;49.194;12.526;2023-07-20T01:44:06;8.37;;;3.60;;
18140;SDS011;9196;49.194;12.526;2023-07-20T01:46:34;6.33;;;3.70;;
18140;SDS011;9196;49.194;12.526;2023-07-20T01:49:02;5.03;;;3.73;;
18140;SDS011;9196;49.194;12.526;2023-07-20T01:51:29;5.50;;;3.70;;
18140;SDS011;9196;49.194;12.526;2023-07-20T01:53:55;3.93;;;3.60;;
18140;SDS011;9196;49.194;12.526;2023-07-20T01:56:22;5.30;;;3.53;;
18140;SDS011;9196;49.194;12.526;2023-07-20T01:58:49;6.90;;;3.97;;
18140;SDS011;9196;49.194;12.526;2023-07-20T02:01:16;4.87;;;3.60;;
18140;SDS011;9196;49.194;12.526;2023-07-20T02:03:43;5.33;;;3.80;;
18140;SDS011;9196;49.194;12.526;2023-07-20T02:06:11;5.03;;;3.87;;
18140;SDS011;9196;49.194;12.526;2023-07-20T02:08:37;4.63;;;3.00;;
18140;SDS011;9196;49.194;12.526;2023-07-20T02:11:04;6.37;;;3.93;;
18140;SDS011;9196;49.194;12.526;2023-07-20T02:13:31;8.90;;;4.03;;
18140;SDS011;9196;49.194;12.526;2023-07-20T02:15:58;7.17;;;3.63;;
18140;SDS011;9196;49.194;12.526;2023-07-20T02:18:24;4.77;;;3.70;;
18140;SDS011;9196;49.194;12.526;2023-07-20T02:20:52;5.93;;;3.60;;
18140;SDS011;9196;49.194;12.526;2023-07-20T02:23:20;8.97;;;4.63;;
18140;SDS011;9196;49.194;12.526;2023-07-20T02:25:47;4.20;;;3.90;;
18140;SDS011;9196;49.194;12.526;2023-07-20T02:28:14;5.53;;;4.20;;
18140;SDS011;9196;49.194;12.526;2023-07-20T02:30:41;5.67;;;4.37;;
18140;SDS011;9196;49.194;12.526;2023-07-20T02:33:08;6.70;;;3.77;;
18140;SDS011;9196;49.194;12.526;2023-07-20T02:35:34;3.53;;;3.23;;
18140;SDS011;9196;49.194;12.526;2023-07-20T02:38:01;5.73;;;4.20;;
18140;SDS011;9196;49.194;12.526;2023-07-20T02:40:29;8.40;;;4.80;;
18140;SDS011;9196;49.194;12.526;2023-07-20T02:42:56;5.60;;;4.97;;
18140;SDS011;9196;49.194;12.526;2023-07-20T02:45:23;6.33;;;4.97;;
18140;SDS011;9196;49.194;12.526;2023-07-20T02:47:50;8.73;;;4.97;;
18140;SDS011;9196;49.194;12.526;2023-07-20T02:50:16;10.93;;;5.00;;
18140;SDS011;9196;49.194;12.526;2023-07-20T02:52:43;12.40;;;4.73;;
18140;SDS011;9196;49.194;12.526;2023-07-20T02:55:10;4.33;;;3.90;;
18140;SDS011;9196;49.194;12.526;2023-07-20T02:57:38;10.90;;;3.27;;
18140;SDS011;9196;49.194;12.526;2023-07-20T03:00:05;6.60;;;4.97;;
18140;SDS011;9196;49.194;12.526;2023-07-20T03:02:33;17.57;;;4.40;;
18140;SDS011;9196;49.194;12.526;2023-07-20T03:05:00;13.73;;;4.30;;
18140;SDS011;9196;49.194;12.526;2023-07-20T03:07:27;6.77;;;4.20;;
18140;SDS011;9196;49.194;12.526;2023-07-20T03:09:54;8.27;;;4.20;;
18140;SDS011;9196;49.194;12.526;2023-07-20T03:12:21;8.20;;;4.10;;
18140;SDS011;9196;49.194;12.526;2023-07-20T03:14:50;12.83;;;4.63;;
18140;SDS011;9196;49.194;12.526;2023-07-20T03:17:17;14.13;;;4.40;;
18140;SDS011;9196;49.194;12.526;2023-07-20T03:19:45;5.20;;;3.83;;
18140;SDS011;9196;49.194;12.526;2023-07-20T03:22:12;6.13;;;4.40;;
18140;SDS011;9196;49.194;12.526;2023-07-20T03:24:39;9.00;;;4.37;;
18140;SDS011;9196;49.194;12.526;2023-07-20T03:27:06;6.40;;;4.30;;
18140;SDS011;9196;49.194;12.526;2023-07-20T03:29:33;9.63;;;4.50;;
18140;SDS011;9196;49.194;12.526;2023-07-20T03:32:01;4.40;;;3.80;;
18140;SDS011;9196;49.194;12.526;2023-07-20T03:34:28;7.00;;;4.20;;
18140;SDS011;9196;49.194;12.526;2023-07-20T03:36:54;8.23;;;5.10;;
18140;SDS011;9196;49.194;12.526;2023-07-20T03:39:21;8.43;;;4.93;;
18140;SDS011;9196;49.194;12.526;2023-07-20T03:41:48;7.83;;;5.10;;
18140;SDS011;9196;49.194;12.526;2023-07-20T03:44:15;6.30;;;3.67;;
18140;SDS011;9196;49.194;12.526;2023-07-20T03:46:42;5.30;;;4.17;;
18140;SDS011;9196;49.194;12.526;2023-07-20T03:49:11;11.30;;;4.30;;
18140;SDS011;9196;49.194;12.526;2023-07-20T03:51:38;4.50;;;4.13;;
18140;SDS011;9196;49.194;12.526;2023-07-20T03:54:04;6.50;;;4.47;;
18140;SDS011;9196;49.194;12.526;2023-07-20T03:56:32;8.73;;;5.60;;
18140;SDS011;9196;49.194;12.526;2023-07-20T03:59:00;6.77;;;4.33;;
18140;SDS011;9196;49.194;12.526;2023-07-20T04:01:27;8.10;;;3.40;;
18140;SDS011;9196;49.194;12.526;2023-07-20T04:03:54;3.93;;;3.60;;
18140;SDS011;9196;49.194;12.526;2023-07-20T04:06:22;5.97;;;3.37;;
18140;SDS011;9196;49.194;12.526;2023-07-20T04:08:49;4.33;;;3.93;;
18140;SDS011;9196;49.194;12.526;2023-07-20T04:11:15;8.33;;;5.13;;
18140;SDS011;9196;49.194;12.526;2023-07-20T04:13:42;6.20;;;4.20;;
18140;SDS011;9196;49.194;12.526;2023-07-20T04:16:09;6.43;;;3.50;;
18140;SDS011;9196;49.194;12.526;2023-07-20T04:18:36;3.67;;;3.37;;
18140;SDS011;9196;49.194;12.526;2023-07-20T04:21:02;4.63;;;4.10;;
18140;SDS011;9196;49.194;12.526;2023-07-20T04:23:31;4.63;;;4.23;;
18140;SDS011;9196;49.194;12.526;2023-07-20T04:25:57;4.20;;;3.63;;
18140;SDS011;9196;49.194;12.526;2023-07-20T04:28:24;6.07;;;4.17;;
18140;SDS011;9196;49.194;12.526;2023-07-20T04:30:52;6.17;;;4.90;;
18140;SDS011;9196;49.194;12.526;2023-07-20T04:33:19;3.73;;;3.43;;
18140;SDS011;9196;49.194;12.526;2023-07-20T04:35:49;6.60;;;4.20;;
18140;SDS011;9196;49.194;12.526;2023-07-20T04:38:17;5.67;;;4.57;;
18140;SDS011;9196;49.194;12.526;2023-07-20T04:40:47;5.37;;;4.63;;
18140;SDS011;9196;49.194;12.526;2023-07-20T04:43:15;5.43;;;4.10;;
18140;SDS011;9196;49.194;12.526;2023-07-20T04:45:43;5.93;;;4.43;;
18140;SDS011;9196;49.194;12.526;2023-07-20T04:48:11;6.23;;;3.90;;
18140;SDS011;9196;49.194;12.526;2023-07-20T04:50:40;6.13;;;3.83;;
18140;SDS011;9196;49.194;12.526;2023-07-20T04:53:06;5.33;;;4.60;;
18140;SDS011;9196;49.194;12.526;2023-07-20T04:55:35;3.90;;;3.60;;
18140;SDS011;9196;49.194;12.526;2023-07-20T04:58:03;7.80;;;4.80;;
18140;SDS011;9196;49.194;12.526;2023-07-20T05:00:31;8.10;;;5.13;;
18140;SDS011;9196;49.194;12.526;2023-07-20T05:02:59;7.27;;;4.60;;
18140;SDS011;9196;49.194;12.526;2023-07-20T05:05:26;7.73;;;5.23;;
18140;SDS011;9196;49.194;12.526;2023-07-20T05:07:52;14.77;;;5.73;;
18140;SDS011;9196;49.194;12.526;2023-07-20T05:10:19;5.33;;;4.30;;
18140;SDS011;9196;49.194;12.526;2023-07-20T05:12:46;4.37;;;3.97;;
18140;SDS011;9196;49.194;12.526;2023-07-20T05:15:14;9.90;;;4.40;;
18140;SDS011;9196;49.194;12.526;2023-07-20T05:17:41;5.10;;;4.17;;
18140;SDS011;9196;49.194;12.526;2023-07-20T05:20:08;4.70;;;4.30;;
18140;SDS011;9196;49.194;12.526;2023-07-20T05:22:37;7.80;;;5.27;;
18140;SDS011;9196;49.194;12.526;2023-07-20T05:25:05;5.87;;;4.30;;
18140;SDS011;9196;49.194;12.526;2023-07-20T05:27:33;8.13;;;4.70;;
18140;SDS011;9196;49.194;12.526;2023-07-20T05:30:01;9.43;;;5.50;;
18140;SDS011;9196;49.194;12.526;2023-07-20T05:32:29;7.67;;;4.23;;
18140;SDS011;9196;49.194;12.526;2023-07-20T05:34:56;4.37;;;3.97;;
18140;SDS011;9196;49.194;12.526;2023-07-20T05:37:23;5.10;;;4.07;;
18140;SDS011;9196;49.194;12.526;2023-07-20T05:39:50;7.20;;;4.97;;
18140;SDS011;9196;49.194;12.526;2023-07-20T05:42:17;7.40;;;4.53;;
18140;SDS011;9196;49.194;12.526;2023-07-20T05:44:44;6.47;;;5.03;;
18140;SDS011;9196;49.194;12.526;2023-07-20T05:47:12;12.27;;;5.33;;
18140;SDS011;9196;49.194;12.526;2023-07-20T05:49:40;8.93;;;5.07;;
18140;SDS011;9196;49.194;12.526;2023-07-20T05:52:07;5.77;;;3.90;;
18140;SDS011;9196;49.194;12.526;2023-07-20T05:54:34;6.23;;;4.50;;
18140;SDS011;9196;49.194;12.526;2023-07-20T05:57:00;4.47;;;4.07;;
18140;SDS011;9196;49.194;12.526;2023-07-20T05:59:27;8.63;;;4.03;;
18140;SDS011;9196;49.194;12.526;2023-07-20T06:01:55;5.30;;;3.67;;
18140;SDS011;9196;49.194;12.526;2023-07-20T06:04:22;4.77;;;4.00;;
18140;SDS011;9196;49.194;12.526;2023-07-20T06:06:50;7.43;;;4.03;;
18140;SDS011;9196;49.194;12.526;2023-07-20T06:09:17;10.40;;;5.10;;
18140;SDS011;9196;49.194;12.526;2023-07-20T06:11:44;7.30;;;4.40;;
18140;SDS011;9196;49.194;12.526;2023-07-20T06:14:10;12.60;;;5.17;;
18140;SDS011;9196;49.194;12.526;2023-07-20T06:16:37;6.73;;;5.07;;
18140;SDS011;9196;49.194;12.526;2023-07-20T06:19:04;8.23;;;5.07;;
18140;SDS011;9196;49.194;12.526;2023-07-20T06:21:31;5.93;;;4.47;;
18140;SDS011;9196;49.194;12.526;2023-07-20T06:23:59;5.07;;;4.67;;
18140;SDS011;9196;49.194;12.526;2023-07-20T06:26:26;6.43;;;4.83;;
18140;SDS011;9196;49.194;12.526;2023-07-20T06:28:53;9.43;;;4.63;;
18140;SDS011;9196;49.194;12.526;2023-07-20T06:31:20;7.47;;;5.10;;
18140;SDS011;9196;49.194;12.526;2023-07-20T06:33:47;8.20;;;6.10;;
18140;SDS011;9196;49.194;12.526;2023-07-20T06:36:15;8.17;;;4.90;;
18140;SDS011;9196;49.194;12.526;2023-07-20T06:38:43;10.20;;;5.20;;
18140;SDS011;9196;49.194;12.526;2023-07-20T06:41:12;6.23;;;5.73;;
18140;SDS011;9196;49.194;12.526;2023-07-20T06:43:38;10.17;;;4.83;;
18140;SDS011;9196;49.194;12.526;2023-07-20T06:46:05;7.70;;;6.20;;
18140;SDS011;9196;49.194;12.526;2023-07-20T06:48:32;8.13;;;5.50;;
18140;SDS011;9196;49.194;12.526;2023-07-20T06:50:59;6.40;;;5.37;;
18140;SDS011;9196;49.194;12.526;2023-07-20T06:53:26;5.33;;;4.60;;
18140;SDS011;9196;49.194;12.526;2023-07-20T06:55:53;7.47;;;5.20;;
18140;SDS011;9196;49.194;12.526;2023-07-20T06:58:23;8.83;;;5.70;;
18140;SDS011;9196;49.194;12.526;2023-07-20T07:00:50;7.60;;;5.50;;
18140;SDS011;9196;49.194;12.526;2023-07-20T07:03:17;7.77;;;4.73;;
18140;SDS011;9196;49.194;12.526;2023-07-20T07:05:44;6.47;;;4.67;;
18140;SDS011;9196;49.194;12.526;2023-07-20T07:08:11;5.00;;;4.07;;
18140;SDS011;9196;49.194;12.526;2023-07-20T07:10:37;17.10;;;8.97;;
18140;SDS011;9196;49.194;12.526;2023-07-20T07:13:04;7.80;;;4.03;;
18140;SDS011;9196;49.194;12.526;2023-07-20T07:15:33;4.37;;;3.37;;
18140;SDS011;9196;49.194;12.526;2023-07-20T07:18:00;8.60;;;4.83;;
18140;SDS011;9196;49.194;12.526;2023-07-20T07:20:28;4.40;;;3.50;;
18140;SDS011;9196;49.194;12.526;2023-07-20T07:22:55;4.07;;;3.40;;
18140;SDS011;9196;49.194;12.526;2023-07-20T07:25:22;4.83;;;3.40;;
18140;SDS011;9196;49.194;12.526;2023-07-20T07:27:49;7.20;;;3.40;;
18140;SDS011;9196;49.194;12.526;2023-07-20T07:30:16;5.87;;;3.90;;
18140;SDS011;9196;49.194;12.526;2023-07-20T07:32:44;4.50;;;3.53;;
18140;SDS011;9196;49.194;12.526;2023-07-20T07:35:11;3.53;;;3.20;;
18140;SDS011;9196;49.194;12.526;2023-07-20T07:37:38;5.70;;;3.80;;
18140;SDS011;9196;49.194;12.526;2023-07-20T07:40:06;6.27;;;3.50;;
18140;SDS011;9196;49.194;12.526;2023-07-20T07:42:35;5.43;;;4.43;;
18140;SDS011;9196;49.194;12.526;2023-07-20T07:45:02;4.00;;;3.70;;
18140;SDS011;9196;49.194;12.526;2023-07-20T07:47:29;6.23;;;4.20;;
18140;SDS011;9196;49.194;12.526;2023-07-20T07:49:57;4.13;;;3.73;;
18140;SDS011;9196;49.194;12.526;2023-07-20T07:52:24;5.07;;;3.63;;
18140;SDS011;9196;49.194;12.526;2023-07-20T07:54:51;4.47;;;3.20;;
18140;SDS011;9196;49.194;12.526;2023-07-20T07:57:18;4.10;;;3.40;;
18140;SDS011;9196;49.194;12.526;2023-07-20T07:59:45;4.40;;;3.50;;
18140;SDS011;9196;49.194;12.526;2023-07-20T08:02:12;5.47;;;4.10;;
18140;SDS011;9196;49.194;12.526;2023-07-20T08:04:39;3.40;;;3.20;;
18140;SDS011;9196;49.194;12.526;2023-07-20T08:07:07;4.57;;;3.30;;
18140;SDS011;9196;49.194;12.526;2023-07-20T08:09:34;3.33;;;3.03;;
18140;SDS011;9196;49.194;12.526;2023-07-20T08:12:01;3.20;;;3.00;;
18140;SDS011;9196;49.194;12.526;2023-07-20T08:14:28;4.10;;;3.40;;
18140;SDS011;9196;49.194;12.526;2023-07-20T08:16:55;5.40;;;2.97;;
18140;SDS011;9196;49.194;12.526;2023-07-20T08:19:22;3.70;;;3.40;;
18140;SDS011;9196;49.194;12.526;2023-07-20T08:21:49;2.77;;;2.57;;
18140;SDS011;9196;49.194;12.526;2023-07-20T08:24:17;4.60;;;2.87;;
18140;SDS011;9196;49.194;12.526;2023-07-20T08:26:43;4.53;;;4.03;;
18140;SDS011;9196;49.194;12.526;2023-07-20T08:29:10;4.20;;;2.40;;
18140;SDS011;9196;49.194;12.526;2023-07-20T08:31:37;6.70;;;2.90;;
18140;SDS011;9196;49.194;12.526;2023-07-20T08:34:04;4.77;;;3.03;;
18140;SDS011;9196;49.194;12.526;2023-07-20T08:36:30;7.37;;;2.97;;
18140;SDS011;9196;49.194;12.526;2023-07-20T08:38:58;4.50;;;3.20;;
18140;SDS011;9196;49.194;12.526;2023-07-20T08:41:27;2.83;;;2.60;;
18140;SDS011;9196;49.194;12.526;2023-07-20T08:43:54;4.67;;;2.43;;
18140;SDS011;9196;49.194;12.526;2023-07-20T08:46:23;3.63;;;2.90;;
18140;SDS011;9196;49.194;12.526;2023-07-20T08:48:51;7.83;;;2.50;;
18140;SDS011;9196;49.194;12.526;2023-07-20T08:51:18;5.43;;;3.00;;
18140;SDS011;9196;49.194;12.526;2023-07-20T08:53:47;6.87;;;2.53;;
18140;SDS011;9196;49.194;12.526;2023-07-20T08:56:16;2.90;;;2.70;;
18140;SDS011;9196;49.194;12.526;2023-07-20T08:58:47;3.83;;;2.90;;
18140;SDS011;9196;49.194;12.526;2023-07-20T09:01:14;3.13;;;2.90;;
18140;SDS011;9196;49.194;12.526;2023-07-20T09:03:41;3.90;;;2.90;;
18140;SDS011;9196;49.194;12.526;2023-07-20T09:06:11;7.37;;;2.90;;
18140;SDS011;9196;49.194;12.526;2023-07-20T09:08:38;6.20;;;3.03;;
18140;SDS011;9196;49.194;12.526;2023-07-20T09:11:05;3.17;;;2.87;;
18140;SDS011;9196;49.194;12.526;2023-07-20T09:13:32;3.70;;;3.07;;
18140;SDS011;9196;49.194;12.526;2023-07-20T09:16:00;10.53;;;3.03;;
18140;SDS011;9196;49.194;12.526;2023-07-20T09:18:29;3.40;;;2.60;;
18140;SDS011;9196;49.194;12.526;2023-07-20T09:21:01;6.33;;;3.00;;
18140;SDS011;9196;49.194;12.526;2023-07-20T09:23:29;4.90;;;2.33;;
18140;SDS011;9196;49.194;12.526;2023-07-20T09:25:57;2.43;;;2.23;;
18140;SDS011;9196;49.194;12.526;2023-07-20T09:28:24;2.40;;;2.30;;
18140;SDS011;9196;49.194;12.526;2023-07-20T09:30:51;4.97;;;2.57;;
18140;SDS011;9196;49.194;12.526;2023-07-20T09:33:22;3.50;;;2.20;;
18140;SDS011;9196;49.194;12.526;2023-07-20T09:35:49;3.80;;;2.70;;
18140;SDS011;9196;49.194;12.526;2023-07-20T09:38:15;2.90;;;2.40;;
18140;SDS011;9196;49.194;12.526;2023-07-20T09:40:42;4.60;;;2.90;;
18140;SDS011;9196;49.194;12.526;2023-07-20T09:43:09;4.10;;;2.50;;
18140;SDS011;9196;49.194;12.526;2023-07-20T09:45:39;4.20;;;2.80;;
18140;SDS011;9196;49.194;12.526;2023-07-20T09:48:07;2.83;;;2.10;;
18140;SDS011;9196;49.194;12.526;2023-07-20T09:50:40;2.47;;;1.80;;
18140;SDS011;9196;49.194;12.526;2023-07-20T09:53:09;2.73;;;2.07;;
18140;SDS011;9196;49.194;12.526;2023-07-20T09:55:39;3.03;;;2.50;;
18140;SDS011;9196;49.194;12.526;2023-07-20T09:58:08;1.90;;;1.80;;
18140;SDS011;9196;49.194;12.526;2023-07-20T10:00:35;7.07;;;2.57;;
18140;SDS011;9196;49.194;12.526;2023-07-20T10:03:04;3.33;;;2.23;;
18140;SDS011;9196;49.194;12.526;2023-07-20T10:05:32;3.23;;;2.90;;
18140;SDS011;9196;49.194;12.526;2023-07-20T10:08:02;2.90;;;2.40;;
18140;SDS011;9196;49.194;12.526;2023-07-20T10:10:30;2.47;;;2.20;;
18140;SDS011;9196;49.194;12.526;2023-07-20T10:13:00;2.70;;;1.97;;
18140;SDS011;9196;49.194;12.526;2023-07-20T10:15:28;2.57;;;1.73;;
18140;SDS011;9196;49.194;12.526;2023-07-20T10:18:02;2.53;;;2.20;;
18140;SDS011;9196;49.194;12.526;2023-07-20T10:20:35;1.70;;;1.70;;
18140;SDS011;9196;49.194;12.526;2023-07-20T10:23:07;3.43;;;2.43;;
18140;SDS011;9196;49.194;12.526;2023-07-20T10:25:35;1.93;;;1.80;;
18140;SDS011;9196;49.194;12.526;2023-07-20T10:28:03;2.50;;;2.37;;
18140;SDS011;9196;49.194;12.526;2023-07-20T10:30:31;2.53;;;2.10;;
18140;SDS011;9196;49.194;12.526;2023-07-20T10:32:59;5.20;;;2.27;;
18140;SDS011;9196;49.194;12.526;2023-07-20T10:35:28;3.50;;;1.83;;
18140;SDS011;9196;49.194;12.526;2023-07-20T10:37:56;2.17;;;1.97;;
18140;SDS011;9196;49.194;12.526;2023-07-20T10:40:29;3.97;;;2.50;;
18140;SDS011;9196;49.194;12.526;2023-07-20T10:43:01;7.20;;;1.60;;
18140;SDS011;9196;49.194;12.526;2023-07-20T10:45:36;2.83;;;1.80;;
18140;SDS011;9196;49.194;12.526;2023-07-20T10:48:12;3.13;;;1.53;;
18140;SDS011;9196;49.194;12.526;2023-07-20T10:50:40;2.70;;;1.97;;
18140;SDS011;9196;49.194;12.526;2023-07-20T10:53:10;4.40;;;2.17;;
18140;SDS011;9196;49.194;12.526;2023-07-20T10:55:40;2.57;;;1.63;;
18140;SDS011;9196;49.194;12.526;2023-07-20T10:58:09;2.90;;;2.10;;
18140;SDS011;9196;49.194;12.526;2023-07-20T11:00:37;3.40;;;1.73;;
18140;SDS011;9196;49.194;12.526;2023-07-20T11:03:26;1.80;;;1.70;;
18140;SDS011;9196;49.194;12.526;2023-07-20T11:05:54;4.23;;;1.83;;
18140;SDS011;9196;49.194;12.526;2023-07-20T11:08:37;1.90;;;1.80;;
18140;SDS011;9196;49.194;12.526;2023-07-20T11:13:57;3.90;;;2.03;;
18140;SDS011;9196;49.194;12.526;2023-07-20T11:16:37;1.73;;;1.63;;
18140;SDS011;9196;49.194;12.526;2023-07-20T11:19:12;5.23;;;1.97;;
18140;SDS011;9196;49.194;12.526;2023-07-20T11:21:41;6.30;;;1.80;;
18140;SDS011;9196;49.194;12.526;2023-07-20T11:24:09;2.03;;;1.80;;
18140;SDS011;9196;49.194;12.526;2023-07-20T11:26:46;2.50;;;1.93;;
18140;SDS011;9196;49.194;12.526;2023-07-20T11:29:16;5.20;;;1.90;;
18140;SDS011;9196;49.194;12.526;2023-07-20T11:31:45;5.80;;;2.27;;
18140;SDS011;9196;49.194;12.526;2023-07-20T11:34:13;2.40;;;2.20;;
18140;SDS011;9196;49.194;12.526;2023-07-20T11:36:43;1.87;;;1.77;;
18140;SDS011;9196;49.194;12.526;2023-07-20T11:39:11;1.90;;;1.80;;
18140;SDS011;9196;49.194;12.526;2023-07-20T11:41:41;1.70;;;1.60;;
18140;SDS011;9196;49.194;12.526;2023-07-20T11:44:11;8.20;;;1.90;;
18140;SDS011;9196;49.194;12.526;2023-07-20T11:46:40;2.37;;;2.17;;
18140;SDS011;9196;49.194;12.526;2023-07-20T11:49:07;1.90;;;1.80;;
18140;SDS011;9196;49.194;12.526;2023-07-20T11:51:34;2.77;;;1.97;;
18140;SDS011;9196;49.194;12.526;2023-07-20T11:54:03;1.77;;;1.67;;
18140;SDS011;9196;49.194;12.526;2023-07-20T11:56:31;2.40;;;1.80;;
18140;SDS011;9196;49.194;12.526;2023-07-20T11:58:58;1.63;;;1.20;;
18140;SDS011;9196;49.194;12.526;2023-07-20T12:01:28;2.50;;;1.83;;
18140;SDS011;9196;49.194;12.526;2023-07-20T12:03:57;1.90;;;1.80;;
18140;SDS011;9196;49.194;12.526;2023-07-20T12:06:24;1.93;;;1.83;;
18140;SDS011;9196;49.194;12.526;2023-07-20T12:08:53;1.70;;;1.60;;
18140;SDS011;9196;49.194;12.526;2023-07-20T12:11:31;2.00;;;1.90;;
18140;SDS011;9196;49.194;12.526;2023-07-20T12:13:58;2.60;;;2.30;;
18140;SDS011;9196;49.194;12.526;2023-07-20T12:16:28;1.90;;;1.80;;
18140;SDS011;9196;49.194;12.526;2023-07-20T12:19:01;3.27;;;1.60;;
18140;SDS011;9196;49.194;12.526;2023-07-20T12:21:29;1.90;;;1.80;;
18140;SDS011;9196;49.194;12.526;2023-07-20T12:23:56;1.90;;;1.80;;
18140;SDS011;9196;49.194;12.526;2023-07-20T12:26:24;2.10;;;1.50;;
18140;SDS011;9196;49.194;12.526;2023-07-20T12:28:51;2.50;;;1.50;;
18140;SDS011;9196;49.194;12.526;2023-07-20T12:31:18;3.07;;;1.50;;
18140;SDS011;9196;49.194;12.526;2023-07-20T12:33:47;3.77;;;1.73;;
18140;SDS011;9196;49.194;12.526;2023-07-20T12:36:14;1.90;;;1.80;;
18140;SDS011;9196;49.194;12.526;2023-07-20T12:38:41;1.80;;;1.60;;
18140;SDS011;9196;49.194;12.526;2023-07-20T12:41:09;1.97;;;1.77;;
18140;SDS011;9196;49.194;12.526;2023-07-20T12:43:38;1.73;;;1.60;;
18140;SDS011;9196;49.194;12.526;2023-07-20T12:46:05;2.03;;;1.70;;
18140;SDS011;9196;49.194;12.526;2023-07-20T12:48:32;3.07;;;2.03;;
18140;SDS011;9196;49.194;12.526;2023-07-20T12:51:00;1.70;;;1.60;;
18140;SDS011;9196;49.194;12.526;2023-07-20T12:53:28;1.87;;;1.77;;
18140;SDS011;9196;49.194;12.526;2023-07-20T12:55:55;1.60;;;1.50;;
18140;SDS011;9196;49.194;12.526;2023-07-20T12:58:21;2.23;;;2.03;;
18140;SDS011;9196;49.194;12.526;2023-07-20T13:00:48;2.37;;;1.90;;
18140;SDS011;9196;49.194;12.526;2023-07-20T13:03:15;3.50;;;1.60;;
18140;SDS011;9196;49.194;12.526;2023-07-20T13:05:44;5.80;;;1.70;;
18140;SDS011;9196;49.194;12.526;2023-07-20T13:08:12;6.43;;;1.70;;
18140;SDS011;9196;49.194;12.526;2023-07-20T13:10:39;2.53;;;1.67;;
18140;SDS011;9196;49.194;12.526;2023-07-20T13:13:07;2.47;;;1.53;;
18140;SDS011;9196;49.194;12.526;2023-07-20T13:15:40;1.97;;;1.73;;
18140;SDS011;9196;49.194;12.526;2023-07-20T13:18:08;2.40;;;1.80;;
18140;SDS011;9196;49.194;12.526;2023-07-20T13:20:34;2.27;;;1.77;;
18140;SDS011;9196;49.194;12.526;2023-07-20T13:23:01;1.23;;;1.20;;
18140;SDS011;9196;49.194;12.526;2023-07-20T13:25:30;2.00;;;1.80;;
18140;SDS011;9196;49.194;12.526;2023-07-20T13:27:57;1.87;;;1.70;;
18140;SDS011;9196;49.194;12.526;2023-07-20T13:30:24;1.80;;;1.70;;
18140;SDS011;9196;49.194;12.526;2023-07-20T13:32:50;1.80;;;1.63;;
18140;SDS011;9196;49.194;12.526;2023-07-20T13:35:17;3.30;;;1.97;;
18140;SDS011;9196;49.194;12.526;2023-07-20T13:37:44;1.63;;;1.20;;
18140;SDS011;9196;49.194;12.526;2023-07-20T13:40:11;2.50;;;2.00;;
18140;SDS011;9196;49.194;12.526;2023-07-20T13:42:41;1.87;;;1.77;;
18140;SDS011;9196;49.194;12.526;2023-07-20T13:45:08;1.90;;;1.80;;
18140;SDS011;9196;49.194;12.526;2023-07-20T13:47:35;1.50;;;1.40;;
18140;SDS011;9196;49.194;12.526;2023-07-20T13:50:02;4.33;;;1.70;;
18140;SDS011;9196;49.194;12.526;2023-07-20T13:52:30;1.80;;;1.70;;
18140;SDS011;9196;49.194;12.526;2023-07-20T13:54:56;1.50;;;1.40;;
18140;SDS011;9196;49.194;12.526;2023-07-20T13:57:23;1.50;;;1.40;;
18140;SDS011;9196;49.194;12.526;2023-07-20T13:59:51;3.23;;;1.43;;
18140;SDS011;9196;49.194;12.526;2023-07-20T14:02:18;3.20;;;1.57;;
18140;SDS011;9196;49.194;12.526;2023-07-20T14:04:45;2.10;;;1.60;;
18140;SDS011;9196;49.194;12.526;2023-07-20T14:07:13;1.77;;;1.57;;
18140;SDS011;9196;49.194;12.526;2023-07-20T14:09:40;3.17;;;1.83;;
18140;SDS011;9196;49.194;12.526;2023-07-20T14:12:06;1.97;;;1.87;;
18140;SDS011;9196;49.194;12.526;2023-07-20T14:14:36;6.53;;;1.70;;
18140;SDS011;9196;49.194;12.526;2023-07-20T14:17:04;1.70;;;1.60;;
18140;SDS011;9196;49.194;12.526;2023-07-20T14:19:31;3.53;;;2.40;;
18140;SDS011;9196;49.194;12.526;2023-07-20T14:21:58;3.90;;;1.83;;
18140;SDS011;9196;49.194;12.526;2023-07-20T14:24:25;2.47;;;1.50;;
18140;SDS011;9196;49.194;12.526;2023-07-20T14:26:53;1.93;;;1.40;;
18140;SDS011;9196;49.194;12.526;2023-07-20T14:29:19;3.90;;;2.30;;
18140;SDS011;9196;49.194;12.526;2023-07-20T14:31:46;3.33;;;1.50;;
18140;SDS011;9196;49.194;12.526;2023-07-20T14:34:16;6.80;;;2.07;;
18140;SDS011;9196;49.194;12.526;2023-07-20T14:36:44;1.90;;;1.47;;
18140;SDS011;9196;49.194;12.526;2023-07-20T14:39:10;2.10;;;1.60;;
18140;SDS011;9196;49.194;12.526;2023-07-20T14:41:37;1.97;;;1.57;;
18140;SDS011;9196;49.194;12.526;2023-07-20T14:44:04;3.53;;;1.60;;
18140;SDS011;9196;49.194;12.526;2023-07-20T14:46:31;2.03;;;1.90;;
18140;SDS011;9196;49.194;12.526;2023-07-20T14:48:58;1.57;;;1.47;;
18140;SDS011;9196;49.194;12.526;2023-07-20T14:51:26;1.63;;;1.53;;
18140;SDS011;9196;49.194;12.526;2023-07-20T14:53:56;6.87;;;1.97;;
18140;SDS011;9196;49.194;12.526;2023-07-20T14:56:23;1.63;;;1.53;;
18140;SDS011;9196;49.194;12.526;2023-07-20T14:58:50;2.83;;;1.53;;
18140;SDS011;9196;49.194;12.526;2023-07-20T15:01:17;2.10;;;1.40;;